Time;durP1;ratioP1;P1;durP2;ratioP2;P2;SDS_P1;SDS_P2;PMS_P1;PMS_P2;Temp;Humidity;BMP_temperature;BMP_pressure;BME280_temperature;BME280_humidity;BME280_pressure;Samples;Min_cycle;Max_cycle;Signal;HPM_P1;HPM_P2
2022/09/15 00:02:09;;;;;;;;;;;;;;;27.34;47.12;97990.59;4468695;32;33618;-85
2022/09/15 00:04:36;;;;;;;;;;;;;;;27.46;47.04;97976.38;4454644;32;33910;-86
2022/09/15 00:07:03;;;;;;;;;;;;;;;27.73;46.44;97964.59;4468497;32;34360;-85
2022/09/15 00:09:31;;;;;;;;;;;;;;;27.95;45.89;97954.03;4468162;32;34280;-85
2022/09/15 00:11:58;;;;;;;;;;;;;;;28.03;45.99;97966.75;4468323;32;34104;-85
2022/09/15 00:14:25;;;;;;;;;;;;;;;27.97;46.28;97992.06;4468563;32;35035;-86
2022/09/15 00:16:52;;;;;;;;;;;;;;;27.94;46.75;97983.47;4468545;32;35223;-86
2022/09/15 00:19:20;;;;;;;;;;;;;;;27.98;46.66;97975.09;4467568;32;34429;-84
2022/09/15 00:21:47;;;;;;;;;;;;;;;28.04;46.50;97987.97;4468246;32;33617;-86
2022/09/15 00:24:14;;;;;;;;;;;;;;;28.21;46.04;97999.97;4468579;32;34129;-87
2022/09/15 00:26:41;;;;;;;;;;;;;;;27.94;46.85;98015.44;4468396;32;34327;-86
2022/09/15 00:29:09;;;;;;;;;;;;;;;27.81;47.10;98018.19;4468038;32;34874;-86
2022/09/15 00:31:36;;;;;;;;;;;;;;;27.92;47.17;98033.31;4468592;32;33318;-85
2022/09/15 00:34:03;;;;;;;;;;;;;;;27.77;47.45;98038.00;4483891;32;34124;-86
2022/09/15 00:36:31;;;;;;;;;;;;;;;27.58;48.04;98043.84;4483316;32;34290;-86
2022/09/15 00:38:58;;;;;;;;;;;;;;;27.37;48.58;98059.59;4483431;32;34182;-86
2022/09/15 00:41:25;;;;;;;;;;;;;;;27.01;49.51;98063.94;4470587;32;33202;-86
2022/09/15 00:43:52;;;;;;;;;;;;;;;25.73;53.27;98070.97;4468525;32;34928;-86
2022/09/15 00:46:21;;;;;;;;;;;;;;;25.79;53.19;98073.22;4468761;32;35272;-85
2022/09/15 00:48:51;;;;;;;;;;;;;;;25.92;52.93;98076.78;4476814;32;34301;-84
2022/09/15 00:51:19;;;;;;;;;;;;;;;25.75;53.29;98078.81;4471726;32;34332;-85
2022/09/15 00:53:47;;;;;;;;;;;;;;;25.33;54.63;98076.22;4454592;32;34304;-85
2022/09/15 00:56:14;;;;;;;;;;;;;;;25.60;53.77;98072.72;4468235;32;35144;-86
2022/09/15 00:58:42;;;;;;;;;;;;;;;25.95;52.94;98057.16;4475646;32;34370;-84
2022/09/15 01:01:15;;;;;;;;;;;;;;;26.03;52.84;98061.94;4458482;32;33363;-85
2022/09/15 01:03:42;;;;;;;;;;;;;;;25.91;53.19;98055.63;4454054;32;33641;-84
2022/09/15 01:06:14;;;;;;;;;;;;;;;26.31;52.31;98059.06;4453926;32;34929;-86
2022/09/15 01:08:44;;;;;;;;;;;;;;;25.93;53.22;98053.72;4475723;32;34221;-86
2022/09/15 01:11:13;;;;;;;;;;;;;;;25.97;53.31;98047.25;4458358;32;33236;-86
2022/09/15 01:13:42;;;;;;;;;;;;;;;25.85;53.56;98051.59;4468017;32;34781;-85
2022/09/15 01:16:18;;;;;;;;;;;;;;;25.95;53.13;98044.72;4454072;32;34508;-86
2022/09/15 01:19:04;;;;;;;;;;;;;;;25.57;53.87;98039.28;4478462;32;34340;-85
2022/09/15 01:21:34;;;;;;;;;;;;;;;25.39;54.59;98037.84;4484014;31;32596;-86
2022/09/15 01:24:20;;;;;;;;;;;;;;;25.14;55.01;98044.72;4482396;32;34441;-85
2022/09/15 01:26:53;;;;;;;;;;;;;;;25.29;54.44;98044.69;4482775;32;34416;-85
2022/09/15 01:29:29;;;;;;;;;;;;;;;25.84;52.71;98044.59;4471630;32;34306;-85
2022/09/15 01:34:49;;;;;;;;;;;;;;;24.61;55.36;98056.91;4456512;32;33775;-85
2022/09/15 01:37:17;;;;;;;;;;;;;;;25.05;53.96;98044.47;4460684;32;34439;-87
2022/09/15 01:39:44;;;;;;;;;;;;;;;25.08;53.82;98049.53;4482618;32;35141;-86
2022/09/15 01:42:12;;;;;;;;;;;;;;;25.72;51.73;98048.88;4469538;32;34858;-85
2022/09/15 01:44:51;;;;;;;;;;;;;;;25.51;51.81;98047.66;4480400;32;33940;-85
2022/09/15 01:47:18;;;;;;;;;;;;;;;25.81;51.04;98049.25;4454262;32;34000;-85
2022/09/15 01:49:47;;;;;;;;;;;;;;;26.32;49.50;98051.94;4467276;32;33901;-87
2022/09/15 01:52:15;;;;;;;;;;;;;;;26.16;50.33;98058.31;4468019;32;34156;-86
2022/09/15 01:54:47;;;;;;;;;;;;;;;25.65;51.63;98060.00;4466086;32;34939;-87
2022/09/15 01:57:16;;;;;;;;;;;;;;;26.02;50.88;98053.09;4454176;32;34458;-87
2022/09/15 01:59:43;;;;;;;;;;;;;;;26.54;49.66;98054.84;4465487;32;33669;-87
2022/09/15 02:02:11;;;;;;;;;;;;;;;26.32;50.08;98063.44;4467599;32;33070;-85
2022/09/15 02:04:40;;;;;;;;;;;;;;;26.81;48.85;98051.19;4460769;32;35134;-84
2022/09/15 02:07:15;;;;;;;;;;;;;;;26.29;50.26;98054.81;4454023;32;34206;-87
2022/09/15 02:09:45;;;;;;;;;;;;;;;26.89;48.71;98051.50;4453639;32;34115;-85
2022/09/15 02:12:32;;;;;;;;;;;;;;;25.66;51.54;98054.59;4453264;32;33355;-85
2022/09/15 02:15:06;;;;;;;;;;;;;;;25.91;50.81;98048.53;4479621;32;34227;-87
2022/09/15 02:17:37;;;;;;;;;;;;;;;26.06;50.38;98043.97;4455234;32;34417;-86
2022/09/15 02:20:07;;;;;;;;;;;;;;;26.04;50.32;98053.84;4453880;32;34362;-86
2022/09/15 02:22:36;;;;;;;;;;;;;;;26.53;48.83;98045.19;4478035;32;33273;-86
2022/09/15 02:25:08;;;;;;;;;;;;;;;25.55;51.20;98048.28;4457044;32;34340;-85
2022/09/15 02:27:37;;;;;;;;;;;;;;;25.76;50.55;98056.63;4454098;32;35089;-86
2022/09/15 02:30:08;;;;;;;;;;;;;;;25.78;50.42;98057.37;4453598;32;35209;-86
2022/09/15 02:32:36;;;;;;;;;;;;;;;24.61;53.24;98062.19;4461878;32;34178;-86
2022/09/15 02:35:05;;;;;;;;;;;;;;;25.23;51.43;98054.75;4468091;32;34252;-85
2022/09/15 02:37:32;;;;;;;;;;;;;;;24.96;52.17;98057.34;4455191;32;34126;-84
2022/09/15 02:40:00;;;;;;;;;;;;;;;24.97;51.89;98051.09;4453461;32;33873;-85
2022/09/15 02:42:28;;;;;;;;;;;;;;;25.66;50.24;98051.94;4476780;32;33555;-86
2022/09/15 02:44:55;;;;;;;;;;;;;;;25.75;49.72;98046.97;4468318;32;34729;-87
2022/09/15 02:47:23;;;;;;;;;;;;;;;26.00;49.03;98043.56;4470078;32;34477;-85
2022/09/15 02:49:50;;;;;;;;;;;;;;;25.71;49.71;98043.66;4468280;32;34624;-85
2022/09/15 02:52:17;;;;;;;;;;;;;;;26.00;49.13;98044.41;4474514;32;34019;-86
2022/09/15 02:54:44;;;;;;;;;;;;;;;26.14;48.66;98049.63;4467455;32;34284;-84
2022/09/15 02:57:15;;;;;;;;;;;;;;;25.80;49.51;98047.53;4467393;32;34217;-85
2022/09/15 03:02:28;;;;;;;;;;;;;;;26.22;48.64;98053.56;4473474;32;33510;-85
2022/09/15 03:04:55;;;;;;;;;;;;;;;26.50;48.15;98056.03;4467447;32;34853;-86
2022/09/15 03:07:23;;;;;;;;;;;;;;;26.56;47.85;98058.28;4467372;32;35298;-86
2022/09/15 03:09:51;;;;;;;;;;;;;;;26.95;47.34;98058.19;4467228;32;34013;-86
2022/09/15 03:12:18;;;;;;;;;;;;;;;26.94;47.12;98070.66;4474623;32;33170;-84
2022/09/15 03:14:45;;;;;;;;;;;;;;;26.73;47.73;98069.50;4482648;31;33813;-85
2022/09/15 03:17:13;;;;;;;;;;;;;;;26.58;47.79;98072.28;4481858;32;35185;-85
2022/09/15 03:19:40;;;;;;;;;;;;;;;26.49;48.38;98078.25;4466880;32;34483;-86
2022/09/15 03:22:08;;;;;;;;;;;;;;;26.88;47.67;98068.41;4466354;32;33391;-86
2022/09/15 03:24:36;;;;;;;;;;;;;;;26.94;47.71;98073.31;4454736;32;34030;-85
2022/09/15 03:27:03;;;;;;;;;;;;;;;27.55;46.34;98052.91;4468616;32;34465;-86
2022/09/15 03:29:30;;;;;;;;;;;;;;;27.60;46.33;98056.06;4454570;32;34476;-86
2022/09/15 03:31:58;;;;;;;;;;;;;;;27.63;46.39;98045.19;4467778;32;33749;-85
2022/09/15 03:34:25;;;;;;;;;;;;;;;27.67;46.37;98050.28;4468962;32;34575;-87
2022/09/15 03:36:52;;;;;;;;;;;;;;;27.91;45.83;98059.13;4468618;32;33887;-86
2022/09/15 03:39:20;;;;;;;;;;;;;;;27.85;46.01;98055.13;4468775;32;33689;-87
2022/09/15 03:41:47;;;;;;;;;;;;;;;28.13;45.24;98043.19;4468223;32;33751;-87
2022/09/15 03:44:14;;;;;;;;;;;;;;;28.00;45.51;98042.44;4468630;32;34696;-86
2022/09/15 03:46:41;;;;;;;;;;;;;;;27.76;45.98;98046.97;4468389;32;35257;-86
2022/09/15 03:49:08;;;;;;;;;;;;;;;27.79;45.90;98054.72;4468837;32;34818;-87
2022/09/15 03:51:35;;;;;;;;;;;;;;;27.92;45.58;98058.19;4468270;32;33731;-85
2022/09/15 03:54:03;;;;;;;;;;;;;;;27.89;45.61;98063.72;4468529;32;34328;-87
2022/09/15 03:56:31;;;;;;;;;;;;;;;28.06;45.26;98070.44;4468384;32;34538;-86
2022/09/15 03:59:00;;;;;;;;;;;;;;;27.78;45.77;98077.00;4468605;32;35158;-85
2022/09/15 04:01:28;;;;;;;;;;;;;;;28.04;45.08;98081.22;4467330;32;33248;-86
2022/09/15 04:03:56;;;;;;;;;;;;;;;27.99;45.15;98077.19;4474691;32;34307;-86
2022/09/15 04:06:24;;;;;;;;;;;;;;;27.91;45.29;98085.75;4468747;32;34695;-86
2022/09/15 04:08:51;;;;;;;;;;;;;;;27.92;45.31;98083.94;4454918;32;34315;-86
2022/09/15 04:11:19;;;;;;;;;;;;;;;27.80;45.50;98080.37;4459758;32;33683;-86
2022/09/15 04:13:46;;;;;;;;;;;;;;;27.92;45.21;98071.50;4476348;32;34854;-87
2022/09/15 04:16:14;;;;;;;;;;;;;;;27.98;45.06;98067.50;4474369;32;34928;-85
2022/09/15 04:18:42;;;;;;;;;;;;;;;28.02;44.79;98067.16;4470482;32;33887;-86
2022/09/15 04:21:11;;;;;;;;;;;;;;;27.61;45.61;98072.87;4458843;32;33300;-87
2022/09/15 04:23:38;;;;;;;;;;;;;;;27.70;44.97;98060.72;4477639;31;34096;-85
2022/09/15 04:26:06;;;;;;;;;;;;;;;27.54;45.03;98069.84;4467307;32;35220;-85
2022/09/15 04:28:34;;;;;;;;;;;;;;;27.28;45.74;98068.25;4454036;32;34904;-87
2022/09/15 04:31:06;;;;;;;;;;;;;;;25.67;50.06;98074.88;4454027;32;33688;-86
2022/09/15 04:33:33;;;;;;;;;;;;;;;25.99;49.89;98087.84;4456424;32;34848;-87
2022/09/15 04:36:02;;;;;;;;;;;;;;;25.69;50.84;98104.84;4453971;32;34383;-87
2022/09/15 04:38:30;;;;;;;;;;;;;;;25.63;51.21;98115.84;4467716;32;34607;-86
2022/09/15 04:40:57;;;;;;;;;;;;;;;25.04;53.32;98119.63;4468496;32;33383;-86
2022/09/15 04:43:25;;;;;;;;;;;;;;;25.75;51.54;98110.69;4467851;32;34115;-87
2022/09/15 04:45:52;;;;;;;;;;;;;;;25.77;51.52;98122.06;4467675;32;33937;-87
2022/09/15 04:48:20;;;;;;;;;;;;;;;25.61;52.11;98112.44;4458941;32;34154;-87
2022/09/15 04:50:47;;;;;;;;;;;;;;;25.40;52.78;98106.72;4468475;32;32613;-88
2022/09/15 04:53:14;;;;;;;;;;;;;;;25.70;52.04;98100.38;4469753;32;34159;-87
2022/09/15 04:55:42;;;;;;;;;;;;;;;26.12;51.04;98080.75;4468913;32;34131;-87
2022/09/15 04:58:09;;;;;;;;;;;;;;;26.03;51.34;98086.69;4477464;32;34101;-86
2022/09/15 05:00:41;;;;;;;;;;;;;;;26.41;50.47;98080.56;4467036;32;34396;-87
2022/09/15 05:03:09;;;;;;;;;;;;;;;26.27;51.01;98073.53;4467757;32;35026;-88
2022/09/15 05:05:37;;;;;;;;;;;;;;;26.19;51.47;98086.50;4453860;32;34979;-88
2022/09/15 05:08:04;;;;;;;;;;;;;;;25.76;52.76;98088.47;4468209;32;34893;-88
2022/09/15 05:10:32;;;;;;;;;;;;;;;25.92;52.62;98092.72;4468308;32;34111;-87
2022/09/15 05:12:59;;;;;;;;;;;;;;;25.99;52.27;98101.13;4467898;32;34345;-88
2022/09/15 05:15:26;;;;;;;;;;;;;;;25.92;52.67;98107.81;4468146;32;34197;-87
2022/09/15 05:17:53;;;;;;;;;;;;;;;25.87;52.89;98112.56;4468240;32;33953;-87
2022/09/15 05:20:21;;;;;;;;;;;;;;;26.07;52.54;98117.41;4468106;32;33280;-88
2022/09/15 05:22:48;;;;;;;;;;;;;;;25.85;53.11;98133.91;4468152;32;33851;-86
2022/09/15 05:25:15;;;;;;;;;;;;;;;25.74;53.69;98144.34;4468094;32;35138;-86
2022/09/15 05:27:42;;;;;;;;;;;;;;;26.25;52.33;98148.97;4468210;32;34247;-86
2022/09/15 05:30:10;;;;;;;;;;;;;;;26.12;52.71;98144.50;4468332;32;33483;-87
2022/09/15 05:32:57;;;;;;;;;;;;;;;25.85;53.62;98143.69;4468406;32;35185;-86
2022/09/15 05:35:24;;;;;;;;;;;;;;;26.16;52.64;98155.78;4468202;32;34260;-86
2022/09/15 05:37:51;;;;;;;;;;;;;;;26.12;52.89;98154.28;4468355;32;34003;-88
2022/09/15 05:40:20;;;;;;;;;;;;;;;26.40;51.91;98143.50;4466654;32;34375;-85
2022/09/15 05:42:48;;;;;;;;;;;;;;;26.18;52.56;98138.78;4467868;32;35108;-86
2022/09/15 05:45:15;;;;;;;;;;;;;;;26.49;51.89;98141.19;4468028;32;34480;-86
2022/09/15 05:47:42;;;;;;;;;;;;;;;26.43;52.11;98147.72;4467733;32;35060;-86
2022/09/15 05:50:10;;;;;;;;;;;;;;;26.28;52.50;98148.78;4468372;32;33485;-86
2022/09/15 05:52:37;;;;;;;;;;;;;;;26.78;51.26;98134.69;4467748;32;34668;-86
2022/09/15 05:55:04;;;;;;;;;;;;;;;26.30;52.50;98122.97;4467527;32;35289;-86
2022/09/15 05:57:32;;;;;;;;;;;;;;;26.36;52.71;98131.34;4467853;32;33494;-86
2022/09/15 05:59:59;;;;;;;;;;;;;;;26.32;52.88;98129.00;4468238;32;33612;-87
2022/09/15 06:02:26;;;;;;;;;;;;;;;26.68;51.80;98129.19;4467663;32;34884;-86
2022/09/15 06:04:54;;;;;;;;;;;;;;;26.48;52.28;98129.72;4467835;32;34393;-86
2022/09/15 06:07:21;;;;;;;;;;;;;;;26.50;52.25;98135.75;4467875;32;34259;-86
2022/09/15 06:09:48;;;;;;;;;;;;;;;26.22;52.90;98143.91;4467572;32;33337;-86
2022/09/15 06:12:17;;;;;;;;;;;;;;;26.69;51.83;98149.50;4467749;32;34975;-86
2022/09/15 06:14:46;;;;;;;;;;;;;;;26.69;51.90;98145.97;4467927;32;34173;-87
2022/09/15 06:17:13;;;;;;;;;;;;;;;26.75;51.80;98158.84;4467568;32;34227;-86
2022/09/15 06:19:40;;;;;;;;;;;;;;;26.83;51.60;98159.19;4467995;32;32999;-86
2022/09/15 06:22:07;;;;;;;;;;;;;;;27.13;50.78;98150.88;4467814;32;34452;-86
2022/09/15 06:24:34;;;;;;;;;;;;;;;27.87;48.69;98148.22;4467699;32;34913;-87
2022/09/15 06:27:02;;;;;;;;;;;;;;;27.74;49.25;98166.06;4467911;32;33482;-86
2022/09/15 06:29:30;;;;;;;;;;;;;;;27.61;49.34;98187.37;4453789;32;33081;-86
2022/09/15 06:32:01;;;;;;;;;;;;;;;27.17;50.39;98183.44;4467659;32;34954;-87
2022/09/15 06:34:29;;;;;;;;;;;;;;;27.42;49.72;98180.72;4467622;32;34256;-86
2022/09/15 06:37:14;;;;;;;;;;;;;;;27.52;49.91;98175.59;4467444;32;35134;-87
2022/09/15 06:39:44;;;;;;;;;;;;;;;27.67;49.37;98175.44;4453266;32;34302;-87
2022/09/15 06:42:11;;;;;;;;;;;;;;;27.12;50.63;98185.56;4467684;32;34178;-86
2022/09/15 06:44:40;;;;;;;;;;;;;;;27.60;49.30;98199.00;4467545;32;34304;-87
2022/09/15 06:47:09;;;;;;;;;;;;;;;27.83;48.81;98184.03;4467466;32;33922;-86
2022/09/15 06:49:36;;;;;;;;;;;;;;;27.85;48.93;98179.47;4467520;32;34155;-87
2022/09/15 06:52:04;;;;;;;;;;;;;;;27.99;48.74;98181.94;4467289;32;33909;-86
2022/09/15 06:54:31;;;;;;;;;;;;;;;28.18;48.46;98183.22;4467548;32;34499;-87
2022/09/15 06:56:58;;;;;;;;;;;;;;;28.13;49.09;98173.78;4466494;32;34043;-86
2022/09/15 06:59:25;;;;;;;;;;;;;;;28.27;48.77;98180.75;4467139;32;34157;-86
2022/09/15 07:01:53;;;;;;;;;;;;;;;28.34;48.11;98167.81;4467116;32;35159;-86
2022/09/15 07:04:21;;;;;;;;;;;;;;;27.97;49.09;98177.69;4467486;32;34173;-86
2022/09/15 07:06:49;;;;;;;;;;;;;;;27.83;50.12;98184.03;4467083;32;34058;-87
2022/09/15 07:09:17;;;;;;;;;;;;;;;28.10;49.61;98189.97;4467546;32;34128;-86
2022/09/15 07:11:44;;;;;;;;;;;;;;;27.92;50.04;98194.03;4467580;32;33876;-86
2022/09/15 07:14:11;;;;;;;;;;;;;;;27.97;49.79;98199.00;4467249;32;33757;-86
2022/09/15 07:16:39;;;;;;;;;;;;;;;27.41;51.38;98194.16;4452861;32;33481;-85
2022/09/15 07:19:06;;;;;;;;;;;;;;;27.24;52.00;98197.13;4467251;32;33378;-85
2022/09/15 07:21:33;;;;;;;;;;;;;;;27.11;52.74;98194.50;4467018;32;33655;-86
2022/09/15 07:24:01;;;;;;;;;;;;;;;27.59;51.53;98197.31;4467064;32;35399;-87
2022/09/15 07:26:33;;;;;;;;;;;;;;;27.55;51.62;98202.00;4453313;32;35048;-86
2022/09/15 07:29:01;;;;;;;;;;;;;;;27.83;51.10;98206.19;4467293;32;32428;-87
2022/09/15 07:31:29;;;;;;;;;;;;;;;28.11;49.31;98205.03;4467063;32;33899;-87
2022/09/15 07:33:58;;;;;;;;;;;;;;;28.38;48.91;98217.28;4466964;32;35198;-86
2022/09/15 07:36:25;;;;;;;;;;;;;;;28.49;48.83;98209.31;4452682;32;34186;-86
2022/09/15 07:38:53;;;;;;;;;;;;;;;28.29;48.46;98218.78;4452798;32;33342;-86
2022/09/15 07:41:21;;;;;;;;;;;;;;;27.41;50.98;98220.75;4466567;32;34983;-86
2022/09/15 07:43:49;;;;;;;;;;;;;;;26.44;53.13;98211.44;4452778;32;35292;-87
2022/09/15 07:46:17;;;;;;;;;;;;;;;26.76;52.16;98220.88;4452679;32;34018;-86
2022/09/15 07:48:44;;;;;;;;;;;;;;;27.42;50.80;98209.16;4466686;32;33316;-85
2022/09/15 07:51:11;;;;;;;;;;;;;;;27.80;49.60;98210.87;4452596;32;34194;-88
2022/09/15 07:53:39;;;;;;;;;;;;;;;28.01;48.81;98212.00;4452744;32;34497;-87
2022/09/15 07:56:06;;;;;;;;;;;;;;;27.37;50.37;98221.94;4452745;32;34043;-87
2022/09/15 07:58:33;;;;;;;;;;;;;;;26.76;51.32;98218.22;4466664;32;33004;-86
2022/09/15 08:01:04;;;;;;;;;;;;;;;27.27;49.81;98228.88;4466609;32;34844;-86
2022/09/15 08:03:32;;;;;;;;;;;;;;;27.45;49.67;98226.72;4451791;32;34523;-85
2022/09/15 08:06:00;;;;;;;;;;;;;;;27.42;48.88;98217.13;4465621;32;35027;-87
2022/09/15 08:08:27;;;;;;;;;;;;;;;27.46;48.98;98217.75;4453356;32;33035;-86
2022/09/15 08:10:54;;;;;;;;;;;;;;;27.76;47.99;98214.75;4468562;32;34230;-86
2022/09/15 08:13:22;;;;;;;;;;;;;;;28.07;47.31;98224.87;4468684;32;35261;-86
2022/09/15 08:15:49;;;;;;;;;;;;;;;28.35;46.54;98218.31;4468570;32;35284;-87
2022/09/15 08:18:17;;;;;;;;;;;;;;;27.57;48.56;98229.34;4468455;32;34181;-86
2022/09/15 08:20:44;;;;;;;;;;;;;;;27.78;47.85;98234.13;4468496;32;33735;-85
2022/09/15 08:23:11;;;;;;;;;;;;;;;28.28;46.40;98226.91;4454518;32;33963;-86
2022/09/15 08:25:39;;;;;;;;;;;;;;;27.82;47.60;98228.47;4468426;32;34143;-86
2022/09/15 08:28:07;;;;;;;;;;;;;;;27.93;47.06;98226.84;4468856;32;33386;-86
2022/09/15 08:30:34;;;;;;;;;;;;;;;27.95;47.25;98225.75;4468619;32;34128;-86
2022/09/15 08:33:01;;;;;;;;;;;;;;;27.51;47.87;98227.16;4468475;32;34899;-86
2022/09/15 08:35:30;;;;;;;;;;;;;;;28.22;45.42;98216.69;4468420;32;34203;-86
2022/09/15 08:37:57;;;;;;;;;;;;;;;28.10;44.53;98207.78;4454780;32;34501;-86
2022/09/15 08:40:27;;;;;;;;;;;;;;;27.72;44.99;98208.75;4454203;32;34109;-91
2022/09/15 08:42:54;;;;;;;;;;;;;;;28.91;43.11;98204.34;4454635;32;33978;-86
2022/09/15 08:45:23;;;;;;;;;;;;;;;29.09;43.27;98202.06;4454339;32;33948;-87
2022/09/15 08:47:54;;;;;;;;;;;;;;;29.08;42.94;98193.22;4454121;32;33907;-86
2022/09/15 08:50:29;;;;;;;;;;;;;;;28.43;44.10;98188.44;4454549;32;34529;-86
2022/09/15 08:53:01;;;;;;;;;;;;;;;28.41;43.42;98189.53;4454274;32;34226;-86
2022/09/15 08:55:55;;;;;;;;;;;;;;;28.99;42.24;98196.59;4468510;32;34983;-90
2022/09/15 08:58:27;;;;;;;;;;;;;;;28.25;42.47;98180.00;4465552;32;33189;-89
2022/09/15 09:01:00;;;;;;;;;;;;;;;27.69;44.26;98181.50;4468437;32;34925;-85
2022/09/15 09:03:30;;;;;;;;;;;;;;;28.48;42.63;98175.62;4467652;32;34177;-87
2022/09/15 09:06:07;;;;;;;;;;;;;;;28.94;41.65;98171.22;4454192;32;35153;-89
2022/09/15 09:08:38;;;;;;;;;;;;;;;29.14;41.63;98177.69;4454274;32;32953;-86
2022/09/15 09:11:10;;;;;;;;;;;;;;;29.19;41.49;98180.84;4468354;32;33764;-86
2022/09/15 09:13:56;;;;;;;;;;;;;;;29.02;41.93;98175.03;4454617;32;34665;-86
2022/09/15 09:16:26;;;;;;;;;;;;;;;29.93;39.53;98167.75;4468334;32;33978;-86
2022/09/15 09:19:03;;;;;;;;;;;;;;;29.79;38.90;98156.37;4468187;32;34056;-85
2022/09/15 09:21:31;;;;;;;;;;;;;;;28.98;40.21;98162.91;4467490;32;34889;-86
2022/09/15 09:24:24;;;;;;;;;;;;;;;28.75;39.67;98170.00;4453817;32;34323;-86
2022/09/15 09:26:53;;;;;;;;;;;;;;;28.39;41.06;98165.66;4465482;32;34124;-86
2022/09/15 09:29:26;;;;;;;;;;;;;;;29.45;38.58;98160.91;4454089;32;33255;-86
2022/09/15 09:31:53;;;;;;;;;;;;;;;29.53;38.18;98160.31;4453640;32;34159;-87
2022/09/15 09:34:24;;;;;;;;;;;;;;;29.47;39.38;98161.66;4467949;32;35344;-86
2022/09/15 09:36:52;;;;;;;;;;;;;;;29.93;38.57;98155.25;4468166;32;34985;-87
2022/09/15 09:39:19;;;;;;;;;;;;;;;29.96;37.41;98149.63;4453713;32;32831;-86
2022/09/15 09:41:47;;;;;;;;;;;;;;;30.23;37.25;98156.34;4468113;32;33970;-86
2022/09/15 09:44:14;;;;;;;;;;;;;;;30.04;36.91;98151.66;4468272;32;34472;-86
2022/09/15 09:46:41;;;;;;;;;;;;;;;30.19;35.62;98149.56;4467687;32;34175;-86
2022/09/15 09:49:22;;;;;;;;;;;;;;;30.14;35.25;98138.41;4454065;32;33430;-86
2022/09/15 09:51:54;;;;;;;;;;;;;;;30.42;35.56;98134.25;4453775;32;34730;-88
2022/09/15 09:54:23;;;;;;;;;;;;;;;30.91;34.90;98138.97;4468036;32;34371;-86
2022/09/15 09:56:51;;;;;;;;;;;;;;;30.67;34.90;98128.50;4453861;32;34505;-86
2022/09/15 09:59:37;;;;;;;;;;;;;;;31.25;33.56;98125.25;4467815;32;34344;-85
2022/09/15 10:02:10;;;;;;;;;;;;;;;31.03;34.66;98112.97;4467764;32;34626;-86
2022/09/15 10:04:38;;;;;;;;;;;;;;;31.27;34.06;98109.94;4468010;32;33944;-87
2022/09/15 10:07:05;;;;;;;;;;;;;;;31.26;34.52;98102.87;4468239;32;34103;-86
2022/09/15 10:09:33;;;;;;;;;;;;;;;31.36;33.62;98086.84;4454207;32;33458;-86
2022/09/15 10:12:03;;;;;;;;;;;;;;;31.40;33.46;98093.63;4453812;32;34202;-86
2022/09/15 10:14:34;;;;;;;;;;;;;;;31.57;32.89;98084.09;4453890;32;34322;-86
2022/09/15 10:17:05;;;;;;;;;;;;;;;31.82;33.04;98083.50;4453544;32;34915;-87
2022/09/15 10:19:33;;;;;;;;;;;;;;;31.54;34.35;98074.47;4467716;32;34288;-86
2022/09/15 10:22:00;;;;;;;;;;;;;;;31.62;34.97;98055.88;4467747;32;34085;-87
2022/09/15 10:24:32;;;;;;;;;;;;;;;31.33;34.62;98049.63;4453487;32;34399;-85
2022/09/15 10:27:18;;;;;;;;;;;;;;;31.79;34.43;98048.97;4467885;32;34125;-86
2022/09/15 10:29:46;;;;;;;;;;;;;;;32.25;33.71;98058.13;4467401;32;32749;-88
2022/09/15 10:32:23;;;;;;;;;;;;;;;31.28;33.70;98047.34;4466482;32;33945;-86
2022/09/15 10:34:59;;;;;;;;;;;;;;;30.87;34.10;98043.84;4453881;32;35081;-87
2022/09/15 10:37:35;;;;;;;;;;;;;;;31.46;34.43;98052.91;4453668;32;33991;-85
2022/09/15 10:40:07;;;;;;;;;;;;;;;31.68;34.05;98046.44;4453543;32;33237;-86
2022/09/15 10:42:34;;;;;;;;;;;;;;;31.76;33.31;98051.94;4453385;32;34097;-86
2022/09/15 10:45:01;;;;;;;;;;;;;;;32.04;32.95;98054.75;4467550;32;33455;-87
2022/09/15 10:47:32;;;;;;;;;;;;;;;31.68;33.84;98055.31;4467510;32;34410;-86
2022/09/15 10:50:18;;;;;;;;;;;;;;;31.20;34.39;98052.53;4467608;32;34524;-86
2022/09/15 10:52:45;;;;;;;;;;;;;;;31.49;34.25;98050.78;4467403;32;34113;-85
2022/09/15 10:55:12;;;;;;;;;;;;;;;31.18;34.77;98065.25;4467360;32;34277;-86
2022/09/15 10:57:39;;;;;;;;;;;;;;;31.43;34.42;98064.72;4467797;32;34944;-86
2022/09/15 11:00:19;;;;;;;;;;;;;;;31.69;34.35;98059.69;4467280;32;33437;-86
2022/09/15 11:03:05;;;;;;;;;;;;;;;31.71;34.48;98064.94;4467317;32;34001;-85
2022/09/15 11:05:33;;;;;;;;;;;;;;;31.05;36.70;98069.97;4467071;32;35109;-86
2022/09/15 11:08:15;;;;;;;;;;;;;;;31.78;36.45;98052.63;4467398;32;34261;-86
2022/09/15 11:10:49;;;;;;;;;;;;;;;31.11;39.03;98056.06;4467223;32;34105;-87
2022/09/15 11:13:19;;;;;;;;;;;;;;;31.07;40.21;98051.97;4453102;32;34113;-86
2022/09/15 11:16:06;;;;;;;;;;;;;;;30.94;40.50;98066.41;4453213;32;34915;-85
2022/09/15 11:18:36;;;;;;;;;;;;;;;30.49;41.17;98064.06;4467171;32;33966;-88
2022/09/15 11:21:06;;;;;;;;;;;;;;;31.13;40.40;98054.91;4467264;32;32576;-88
2022/09/15 11:23:36;;;;;;;;;;;;;;;30.85;41.04;98056.53;4466980;32;33927;-86
2022/09/15 11:26:06;;;;;;;;;;;;;;;30.98;40.68;98062.47;4452989;32;33917;-86
2022/09/15 11:28:44;;;;;;;;;;;;;;;31.27;39.87;98057.22;4452910;32;33922;-86
2022/09/15 11:31:15;;;;;;;;;;;;;;;31.14;40.15;98059.31;4467536;32;33684;-86
2022/09/15 11:33:45;;;;;;;;;;;;;;;31.30;40.20;98055.25;4453035;32;34285;-86
2022/09/15 11:36:32;;;;;;;;;;;;;;;30.78;40.98;98050.03;4466997;32;34521;-86
2022/09/15 11:39:03;;;;;;;;;;;;;;;31.19;40.27;98043.66;4466809;32;34284;-86
2022/09/15 11:41:33;;;;;;;;;;;;;;;30.91;40.82;98029.25;4452646;32;33805;-86
2022/09/15 11:44:19;;;;;;;;;;;;;;;30.87;41.26;98014.41;4453666;32;35162;-86
2022/09/15 11:46:52;;;;;;;;;;;;;;;31.31;41.08;98009.63;4468657;32;34691;-86
2022/09/15 11:49:21;;;;;;;;;;;;;;;31.10;41.74;98007.00;4468807;32;33726;-86
2022/09/15 11:51:53;;;;;;;;;;;;;;;31.01;42.54;97989.94;4468936;32;34111;-86
2022/09/15 11:54:22;;;;;;;;;;;;;;;31.16;42.32;97985.03;4454683;32;35015;-86
2022/09/15 11:56:50;;;;;;;;;;;;;;;30.83;42.31;97988.06;4454738;32;34504;-85
2022/09/15 11:59:27;;;;;;;;;;;;;;;31.29;41.72;97974.03;4454697;32;34361;-85
2022/09/15 12:02:08;;;;;;;;;;;;;;;31.29;41.54;97986.59;4468599;32;32920;-86
2022/09/15 12:04:57;;;;;;;;;;;;;;;30.93;42.36;98005.84;4468428;32;34307;-88
2022/09/15 12:07:27;;;;;;;;;;;;;;;31.18;41.52;98009.00;4454761;32;34530;-86
2022/09/15 12:10:02;;;;;;;;;;;;;;;30.98;41.60;98008.94;4468536;32;33550;-85
2022/09/15 12:12:29;;;;;;;;;;;;;;;31.02;41.13;98005.00;4454898;32;32951;-86
2022/09/15 12:14:57;;;;;;;;;;;;;;;30.92;41.05;98000.66;4454682;32;34165;-87
2022/09/15 12:17:30;;;;;;;;;;;;;;;30.71;41.34;97995.31;4468733;32;34535;-87
2022/09/15 12:20:00;;;;;;;;;;;;;;;30.53;41.24;97998.66;4468642;32;34336;-86
2022/09/15 12:22:29;;;;;;;;;;;;;;;30.42;41.83;97996.06;4468552;32;33344;-86
2022/09/15 12:25:00;;;;;;;;;;;;;;;30.70;40.84;97985.62;4454692;32;33931;-86
2022/09/15 12:27:28;;;;;;;;;;;;;;;30.93;40.23;97973.72;4454381;32;35190;-86
2022/09/15 12:29:56;;;;;;;;;;;;;;;31.13;39.46;97960.38;4454332;32;34453;-85
2022/09/15 12:32:30;;;;;;;;;;;;;;;31.46;38.71;97965.34;4454758;32;33867;-88
2022/09/15 12:35:01;;;;;;;;;;;;;;;31.21;39.67;97965.87;4468595;32;34323;-86
2022/09/15 12:37:29;;;;;;;;;;;;;;;31.29;39.68;97971.38;4468631;32;34776;-86
2022/09/15 12:39:57;;;;;;;;;;;;;;;30.41;41.50;97978.31;4454416;32;34351;-86
2022/09/15 12:42:25;;;;;;;;;;;;;;;30.83;40.81;97967.50;4468253;32;34016;-86
2022/09/15 12:44:53;;;;;;;;;;;;;;;31.33;39.82;97954.09;4454294;32;35102;-86
2022/09/15 12:47:25;;;;;;;;;;;;;;;31.48;39.48;97944.66;4454589;32;34460;-89
2022/09/15 12:49:54;;;;;;;;;;;;;;;31.03;40.36;97973.75;4454126;32;34137;-86
2022/09/15 12:52:21;;;;;;;;;;;;;;;29.88;44.10;97994.44;4468593;32;33493;-84
2022/09/15 12:55:11;;;;;;;;;;;;;;;28.94;45.58;98011.97;4467384;32;34320;-87
2022/09/15 12:57:38;;;;;;;;;;;;;;;28.49;43.83;98020.03;4468625;32;34007;-86
2022/09/15 13:00:25;;;;;;;;;;;;;;;27.27;44.13;98015.97;4440987;32;870103;-85
2022/09/15 13:02:52;;;;;;;;;;;;;;;26.57;46.38;98011.25;4468368;32;33646;-86
2022/09/15 13:05:52;;;;;;;;;;;;;;;26.16;46.84;98001.69;4468729;32;34294;-86
2022/09/15 13:08:22;;;;;;;;;;;;;;;26.44;46.10;97998.81;4433669;32;33550;-86